createdAt,value
2022-08-22T00:08:50.987Z,13.3
2022-08-22T00:23:14.377Z,13.4
2022-08-22T00:37:42.227Z,13.3
2022-08-22T00:52:09.831Z,13.2
2022-08-22T01:06:38.714Z,13
2022-08-22T01:21:08.549Z,13.4
2022-08-22T01:35:37.902Z,13.3
2022-08-22T01:50:05.337Z,13.3
2022-08-22T02:04:33.807Z,13.2
2022-08-22T02:19:02.023Z,13.1
2022-08-22T02:33:28.567Z,13.3
2022-08-22T02:48:02.503Z,13.2
2022-08-22T03:02:33.740Z,13.1
2022-08-22T03:16:57.981Z,13.1
2022-08-22T03:31:25.565Z,13.1
2022-08-22T03:45:54.216Z,13
2022-08-22T04:00:23.412Z,12.9
2022-08-22T04:14:51.905Z,12.9
2022-08-22T04:29:19.204Z,12.9
2022-08-22T04:43:53.990Z,13
2022-08-22T04:58:23.875Z,13
2022-08-22T05:12:46.218Z,13
2022-08-22T05:27:13.224Z,13.1
2022-08-22T05:41:29.183Z,13.3
2022-08-22T05:55:58.473Z,13.4
2022-08-22T06:10:27.795Z,13.6
2022-08-22T06:25:03.242Z,13.6
2022-08-22T06:39:29.245Z,13.8
2022-08-22T06:54:06.733Z,13.1
2022-08-22T07:08:40.485Z,13.3
2022-08-22T07:23:14.409Z,12.7
2022-08-22T07:37:39.529Z,13.1
2022-08-22T07:52:18.131Z,13.9
2022-08-22T08:06:47.153Z,13
2022-08-22T08:21:11.547Z,12.9
2022-08-22T08:36:04.359Z,13
2022-08-22T08:50:24.138Z,13.2
2022-08-22T09:04:53.878Z,13.6
2022-08-22T09:19:28.084Z,14
2022-08-22T09:33:53.397Z,12.2
2022-08-22T09:48:27.016Z,12.2
2022-08-22T10:02:56.119Z,12.9
2022-08-22T10:17:23.296Z,12.3
2022-08-22T10:32:10.855Z,11.4
2022-08-22T10:46:30.114Z,12.2
2022-08-22T11:01:00.154Z,12.3
2022-08-22T11:15:37.678Z,11.5
2022-08-22T11:30:02.763Z,11.3
2022-08-22T11:44:51.221Z,11.8
2022-08-22T11:59:07.223Z,12.2
2022-08-22T12:13:35.862Z,12.1
2022-08-22T12:28:09.535Z,11.9
2022-08-22T12:42:46.275Z,11.5
2022-08-22T12:57:25.387Z,11.2
2022-08-22T13:11:43.069Z,11.5
2022-08-22T13:26:43.979Z,11
2022-08-22T13:40:55.764Z,11.1
2022-08-22T13:55:30.487Z,10
2022-08-22T14:09:54.969Z,10.3
2022-08-22T14:24:27.786Z,9.8
2022-08-22T14:38:53.940Z,10.2
2022-08-22T14:53:25.678Z,10.3
2022-08-22T15:07:49.953Z,11.5
2022-08-22T15:22:28.903Z,10.8
2022-08-22T15:36:56.323Z,11.3
2022-08-22T15:51:24.214Z,10.7
2022-08-22T16:05:56.093Z,11.2
2022-08-22T16:20:20.662Z,11.1
2022-08-22T16:34:45.803Z,11.3
2022-08-22T16:49:12.733Z,11.3
2022-08-22T17:03:47.758Z,11.4
2022-08-22T17:18:17.572Z,12.1
2022-08-22T17:33:00.395Z,12.3
2022-08-22T17:47:24.226Z,12.8
2022-08-22T18:01:48.248Z,12.6
2022-08-22T18:16:15.588Z,13.1
2022-08-22T18:30:43.425Z,12.5
2022-08-22T18:45:10.816Z,12.6
2022-08-22T18:59:37.390Z,13.2
2022-08-22T19:14:03.506Z,13.2
2022-08-22T19:28:32.488Z,13.1
2022-08-22T19:43:09.529Z,13.1
2022-08-22T19:57:32.428Z,13.2
2022-08-22T20:12:01.139Z,13.3
2022-08-22T20:26:29.405Z,13.2
2022-08-22T20:41:01.253Z,13.2
2022-08-22T20:55:32.332Z,13.1
2022-08-22T21:09:56.085Z,13.1
2022-08-22T21:24:24.390Z,13.3
2022-08-22T21:38:53.007Z,13
2022-08-22T21:53:19.208Z,12.7
2022-08-22T22:07:45.203Z,12.7
2022-08-22T22:22:14.266Z,12.7
2022-08-22T22:36:42.625Z,13.1
2022-08-22T22:51:16.179Z,12.9
2022-08-22T23:05:45.976Z,12.6
2022-08-22T23:20:09.880Z,12.7
2022-08-22T23:34:37.540Z,11.9
2022-08-22T23:49:06.228Z,11.6
